Latest Weather Observations for Ballarat

IDV60801

Issued at 5:32 am EDT Sunday 16 December 2018 (issued every 10 minutes, with the page automatically refreshed every 10 minutes)

About weather observations | Map of weather stations | Latest weather observations for VIC | Other Formats
Station Details ID: 089002 Name: BALLARAT AERODROME Lat: -37.51 Lon: 143.79 Height: 435.2 m
Data from the previous 72 hours. | See also: Recent months at Ballarat
Date/Time
EDT
Temp
°C
App
Temp
°C
Dew
Point
°C
Rel
Hum
%
Delta-T
°C
Wind Press
QNH
hPa
Press
MSL
hPa
Rain since
9am
mm
Dir  Spd
km/h
Gust
km/h
Spd
kts
Gust
kts
16/05:30am 12.6 10.5 12.3 98 0.2 N 15 17 8 9 1004.4 1003.3 2.6
16/05:00am 11.6 9.2 11.3 98 0.2 N 15 19 8 10 1004.3 1003.2 2.6
16/04:30am 10.4 8.0 10.1 98 0.2 NNW 13 15 7 8 1004.0 1002.9 2.6
16/04:00am 11.1 8.7 9.9 92 0.6 NNW 13 17 7 9 1003.9 1002.8 2.6
16/03:30am 12.4 10.3 9.8 84 1.4 NE 11 13 6 7 1004.0 1002.9 2.6
16/03:00am 12.6 10.8 9.6 82 1.6 ENE 9 13 5 7 1004.1 1003.0 2.6
16/02:30am 12.5 9.9 9.3 81 1.7 ENE 13 17 7 9 1004.2 1003.1 2.6
16/02:00am 12.7 9.8 9.7 82 1.6 NE 15 17 8 9 1004.2 1003.1 2.6
16/01:30am 12.5 9.8 10.4 87 1.1 NE 15 17 8 9 1004.4 1003.3 2.6
16/01:00am 12.2 9.7 10.9 92 0.7 ENE 15 17 8 9 1004.5 1003.4 2.6
16/12:30am 12.6 10.5 11.2 91 0.8 NE 13 17 7 9 1004.6 1003.5 2.6
16/12:00am 12.9 10.7 12.0 94 0.5 NE 15 17 8 9 1005.0 1003.9 2.6
 
Date/Time
EDT
Temp
°C
App
Temp
°C
Dew
Point
°C
Rel
Hum
%
Delta-T
°C
Wind Press
QNH
hPa
Press
MSL
hPa
Rain since
9am
mm
Dir  Spd
km/h
Gust
km/h
Spd
kts
Gust
kts
15/11:30pm 12.6 11.0 11.7 94 0.5 ENE 11 13 6 7 1005.3 1004.3 2.6
15/11:00pm 12.5 11.1 10.9 90 0.9 ENE 9 11 5 6 1005.5 1004.5 2.6
15/10:30pm 13.4 11.6 10.8 84 1.4 E 11 15 6 8 1006.0 1004.9 2.6
15/10:00pm 13.5 12.0 10.7 83 1.5 ENE 9 11 5 6 1005.7 1004.7 2.6
15/09:30pm 13.9 12.1 10.9 82 1.6 ENE 11 13 6 7 1005.3 1004.3 2.6
15/09:00pm 15.0 12.3 11.6 80 1.9 NNE 17 22 9 12 1004.7 1003.6 2.6
15/08:30pm 14.5 12.9 11.7 83 1.5 NE 11 15 6 8 1004.6 1003.5 2.6
15/08:00pm 14.9 13.0 11.7 81 1.8 NNE 13 15 7 8 1004.6 1003.5 2.6
15/07:30pm 15.6 12.3 11.0 74 2.5 NNE 19 24 10 13 1004.5 1003.4 2.6
15/07:00pm 16.1 12.5 10.4 69 3.1 N 20 26 11 14 1004.6 1003.5 2.6
15/06:30pm 17.9 13.2 9.3 57 4.6 N 24 32 13 17 1004.3 1003.2 2.6
15/06:00pm 17.8 12.4 9.4 58 4.5 N 28 33 15 18 1004.1 1003.0 2.6
15/05:30pm 16.9 11.0 10.5 66 3.5 N 32 48 17 26 1004.1 1003.0 2.6
15/05:28pm 17.0 12.0 10.8 67 3.4 NNE 28 48 15 26 1004.1 1003.0 2.6
15/05:00pm 18.3 15.3 12.5 69 3.3 NNE 20 28 11 15 1004.2 1003.1 2.6
15/04:30pm 18.8 13.8 12.1 65 3.8 N 30 44 16 24 1004.0 1002.9 2.6
15/04:00pm 19.7 16.0 10.1 54 5.3 NNE 20 30 11 16 1004.4 1003.3 2.6
15/03:30pm 17.9 13.9 11.9 68 3.4 NE 24 32 13 17 1004.9 1003.8 2.6
15/03:00pm 16.3 12.1 12.3 77 2.3 NE 26 35 14 19 1005.1 1004.1 2.6
15/02:30pm 18.0 12.8 10.4 61 4.2 NE 28 41 15 22 1005.1 1004.1 2.6
15/02:00pm 19.1 14.1 10.9 59 4.6 NE 28 37 15 20 1005.2 1004.2 2.6
15/01:30pm 19.7 16.0 11.5 59 4.6 NE 22 35 12 19 1005.0 1003.9 2.6
15/01:00pm 20.3 18.4 14.2 68 3.6 NNE 17 24 9 13 1005.1 1004.1 2.6
15/12:30pm 19.5 18.3 13.9 70 3.3 NNE 13 19 7 10 1005.5 1004.5 2.6
15/12:00pm 18.3 16.1 14.4 78 2.3 N 19 26 10 14 1005.6 1004.6 2.6
15/11:30am 18.2 17.5 15.5 84 1.6 NNE 13 26 7 14 1005.6 1004.6 2.6
15/11:00am 16.1 16.4 15.9 99 0.1 N 9 13 5 7 1006.1 1005.0 2.6
15/10:30am 15.3 15.3 15.1 99 0.1 ESE 9 13 5 7 1006.2 1005.1 2.6
15/10:00am 15.3 15.3 15.1 99 0.1 NNE 9 13 5 7 1006.2 1005.1 1.8
15/09:30am 15.1 12.5 14.9 99 0.1 NE 22 39 12 21 1006.7 1005.6 1.6
15/09:13am 16.9 15.5 16.9 100 0.0 SE 20 26 11 14 1006.5 1005.4 0.2
15/09:00am 17.2 16.1 17.2 100 0.0 SE 19 26 10 14 1006.1 1005.0 41.6
15/08:30am 17.2 15.1 17.2 100 0.0 SE 24 32 13 17 1006.0 1004.9 41.6
15/08:08am 17.2 15.1 17.2 100 0.0 SE 24 32 13 17 1005.7 1004.7 41.6
15/08:00am 17.0 14.8 17.0 100 0.0 SE 24 32 13 17 1005.4 1004.4 41.6
15/07:30am 16.6 - - - - SE 22 28 12 15 1004.8 1003.7 41.6
15/07:26am 16.5 - - - - SE 22 30 12 16 1004.8 1003.7 41.6
15/07:00am 16.2 - - - - SE 22 30 12 16 1004.7 1003.6 41.6
15/06:30am 15.9 - - - - SSE 15 19 8 10 1004.8 1003.7 41.6
15/06:00am 15.6 - - - - SE 19 22 10 12 1005.3 1004.3 41.6
15/05:30am 15.0 - - - - SSE 15 19 8 10 1005.5 1004.5 41.6
15/05:08am 15.2 - - - - SSE 13 20 7 11 1005.4 1004.4 41.6
15/05:00am 15.1 - - - - SSE 15 20 8 11 1005.4 1004.4 41.6
15/04:30am 14.9 - - - - SE 17 20 9 11 1005.1 1004.1 41.6
15/04:00am 14.4 - - - - SSE 15 19 8 10 1005.4 1004.4 41.6
15/03:30am 14.3 - - - - SSE 15 20 8 11 1005.5 1004.5 41.6
15/03:03am 14.5 13.5 14.5 100 0.0 S 13 17 7 9 1005.7 1004.7 41.4
15/03:00am 14.4 13.3 14.4 100 0.0 S 13 15 7 8 1005.7 1004.7 41.4
15/02:30am 13.3 12.6 13.3 100 0.0 SSE 9 11 5 6 1006.0 1004.9 41.4
15/02:00am 13.8 13.7 13.8 100 0.0 SSE 7 9 4 5 1006.0 1004.9 41.4
15/01:30am 13.9 13.4 13.9 100 0.0 SSE 9 11 5 6 1006.3 1005.2 41.4
15/01:00am 14.1 15.4 14.1 100 0.0 CALM 0 7 0 4 1006.5 1005.4 41.4
15/12:30am 14.2 14.8 14.2 100 0.0 SE 4 6 2 3 1006.6 1005.5 41.4
15/12:00am 14.4 14.1 14.4 100 0.0 S 9 13 5 7 1006.7 1005.6 41.4
 
Date/Time
EDT
Temp
°C
App
Temp
°C
Dew
Point
°C
Rel
Hum
%
Delta-T
°C
Wind Press
QNH
hPa
Press
MSL
hPa
Rain since
9am
mm
Dir  Spd
km/h
Gust
km/h
Spd
kts
Gust
kts
14/11:30pm 14.2 13.5 14.2 100 0.0 SE 11 13 6 7 1007.0 1005.9 41.4
14/11:00pm 14.1 13.7 14.1 100 0.0 SE 9 13 5 7 1006.8 1005.7 41.4
14/10:30pm 14.1 13.7 14.1 100 0.0 SE 9 15 5 8 1006.7 1005.6 41.4
14/10:00pm 14.1 13.3 14.1 100 0.0 E 11 13 6 7 1006.7 1005.6 41.4
14/09:30pm 14.2 13.8 14.2 100 0.0 SSE 9 11 5 6 1006.6 1005.5 41.4
14/09:02pm 14.1 14.1 14.1 100 0.0 S 7 9 4 5 1006.3 1005.2 41.4
14/09:00pm 14.1 14.1 14.1 100 0.0 S 7 9 4 5 1006.1 1005.0 41.0
14/08:44pm 14.1 13.7 14.1 100 0.0 E 9 15 5 8 1006.6 1005.5 39.8
14/08:30pm 14.2 13.8 14.2 100 0.0 ESE 9 13 5 7 1006.7 1005.6 37.4
14/08:00pm 14.4 13.7 14.4 100 0.0 SE 11 15 6 8 1006.3 1005.2 35.4
14/07:30pm 14.2 13.5 14.2 100 0.0 ESE 11 17 6 9 1005.7 1004.7 34.8
14/07:16pm 14.6 13.6 14.6 100 0.0 SE 13 17 7 9 1005.8 1004.8 34.2
14/07:00pm 14.4 12.2 14.4 100 0.0 ESE 19 22 10 12 1005.6 1004.6 32.2
14/06:53pm 14.5 13.5 14.5 100 0.0 ESE 13 20 7 11 1005.3 1004.3 30.0
14/06:40pm 14.6 13.6 14.6 100 0.0 SE 13 15 7 8 1004.8 1003.7 28.4
14/06:30pm 14.6 14.0 14.6 100 0.0 SE 11 13 6 7 1005.0 1003.9 28.2
14/06:15pm 14.9 10.2 14.9 100 0.0 NE 33 61 18 33 1005.2 1004.2 23.0
14/06:07pm 14.9 11.9 14.9 100 0.0 NNE 24 61 13 33 1004.7 1003.6 14.2
14/06:06pm 16.5 14.9 16.5 100 0.0 N 20 41 11 22 1004.7 1003.6 12.8
14/06:00pm 17.1 17.1 17.1 100 0.0 N 13 17 7 9 1004.3 1003.2 10.8
14/05:39pm 17.4 17.5 17.4 100 0.0 NNE 13 19 7 10 1004.6 1003.5 6.8
14/05:30pm 17.7 17.5 17.5 99 0.1 NNE 15 20 8 11 1004.4 1003.3 5.8
14/05:00pm 19.4 17.5 15.1 76 2.6 ENE 19 26 10 14 1003.9 1002.8 4.4
14/04:30pm 21.3 17.8 13.5 61 4.6 ESE 24 33 13 18 1004.0 1002.9 4.4
14/04:00pm 21.8 17.4 14.2 62 4.5 ESE 30 39 16 21 1004.0 1002.9 4.4
14/03:30pm 21.4 17.4 14.1 63 4.3 ESE 28 37 15 20 1004.2 1003.1 4.4
14/03:00pm 21.7 18.2 14.4 63 4.4 ESE 26 39 14 21 1004.1 1003.0 4.4
14/02:30pm 20.9 17.2 13.8 64 4.2 ESE 26 39 14 21 1004.4 1003.3 4.4
14/02:00pm 20.9 18.3 15.0 69 3.6 ESE 22 32 12 17 1004.1 1003.0 4.4
14/01:30pm 20.7 17.2 14.6 68 3.6 ESE 26 33 14 18 1004.1 1003.0 4.4
14/01:26pm 20.8 16.8 14.2 66 3.9 ESE 28 33 15 18 1004.0 1002.9 4.4
14/01:00pm 19.0 19.6 15.9 82 1.9 ENE 7 15 4 8 1004.0 1002.9 4.4
14/12:30pm 18.5 18.1 16.3 87 1.3 NE 13 20 7 11 1004.2 1003.1 4.2
14/12:00pm 16.1 15.2 15.9 99 0.1 NE 15 20 8 11 1004.4 1003.3 4.2
14/11:30am 14.1 10.7 13.8 98 0.2 SE 24 35 13 19 1004.0 1002.9 4.0
14/11:00am 14.3 11.4 14.0 98 0.2 ESE 22 30 12 16 1004.6 1003.5 2.4
14/10:30am 15.1 12.5 13.1 88 1.1 ESE 19 26 10 14 1004.6 1003.5 1.2
14/10:00am 15.5 9.6 12.4 82 1.7 ESE 35 50 19 27 1004.7 1003.6 1.0
14/09:49am 15.1 11.3 14.8 98 0.2 ESE 28 50 15 27 1004.4 1003.3 1.0
14/09:30am 13.9 11.3 13.9 100 0.0 SE 20 26 11 14 1004.5 1003.4 1.0
14/09:00am 12.8 11.6 12.8 100 0.0 ENE 11 15 6 8 1005.3 1004.3 21.0
14/08:30am 12.9 10.2 12.9 100 0.0 NNE 19 28 10 15 1005.0 1003.9 19.2
14/08:00am 12.8 11.6 12.8 100 0.0 ENE 11 17 6 9 1004.8 1003.7 18.6
14/07:30am 12.5 12.1 12.5 100 0.0 N 6 9 3 5 1003.0 1002.0 18.6
14/07:06am 12.5 12.1 12.5 100 0.0 N 6 7 3 4 1002.3 1001.2 18.6
14/07:00am 12.3 11.7 12.3 100 0.0 N 7 9 4 5 1001.9 1000.8 18.6
14/06:33am 12.4 13.2 12.4 100 0.0 CALM 0 6 0 3 1002.2 1001.1 18.6
14/06:30am 12.3 13.0 12.3 100 0.0 CALM 0 0 0 0 1002.2 1001.1 18.6
14/06:00am 12.7 12.2 12.7 100 0.0 N 7 13 4 7 1001.8 1000.7 18.6
14/05:48am 13.0 12.6 13.0 100 0.0 NNE 7 11 4 6 1001.7 1000.6 18.6
14/05:37am 13.0 12.6 13.0 100 0.0 NNE 7 11 4 6 1001.7 1000.6 18.6
14/05:30am 13.0 12.2 13.0 100 0.0 NNE 9 13 5 7 1001.2 1000.1 18.6
14/05:16am 13.4 13.1 13.4 100 0.0 NE 7 9 4 5 1001.0 1000.0 18.6
14/05:00am 13.3 13.0 13.3 100 0.0 NE 7 11 4 6 1001.0 1000.0 18.6
14/04:39am 13.4 13.3 13.4 100 0.0 NE 6 9 3 5 1000.9 999.8 18.6
14/04:30am 13.1 12.7 13.1 100 0.0 NNE 7 9 4 5 1000.5 999.4 18.6
14/04:13am 13.2 14.2 13.2 100 0.0 CALM 0 6 0 3 999.9 998.8 18.6
14/04:00am 13.4 12.0 13.4 100 0.0 NNE 13 17 7 9 1000.2 999.1 18.6
14/03:55am 13.5 12.1 13.5 100 0.0 N 13 17 7 9 1000.1 999.0 18.6
14/03:30am 13.5 12.5 13.5 100 0.0 SE 11 13 6 7 999.4 998.3 18.6
14/03:19am 13.5 12.1 13.5 100 0.0 SSE 13 17 7 9 999.3 998.2 18.6
14/03:00am 13.1 12.4 13.1 100 0.0 SE 9 15 5 8 999.6 998.5 18.6
14/02:30am 12.6 12.1 12.6 100 0.0 NE 7 9 4 5 999.6 998.5 18.0
14/02:00am 12.3 10.6 12.3 100 0.0 NNE 13 17 7 9 999.5 998.4 17.8
14/01:30am 13.2 11.4 13.2 100 0.0 NE 15 26 8 14 999.3 998.2 17.6
14/01:00am 14.4 12.6 14.4 100 0.0 SSE 17 24 9 13 998.5 997.4 17.6
14/12:30am 14.3 12.1 14.3 100 0.0 SSE 19 26 10 14 998.4 997.3 17.6
14/12:00am 14.2 11.7 14.2 100 0.0 SSE 20 28 11 15 998.4 997.3 17.6
 
Date/Time
EDT
Temp
°C
App
Temp
°C
Dew
Point
°C
Rel
Hum
%
Delta-T
°C
Wind Press
QNH
hPa
Press
MSL
hPa
Rain since
9am
mm
Dir  Spd
km/h
Gust
km/h
Spd
kts
Gust
kts
13/11:30pm 14.3 11.9 14.3 100 0.0 SSE 20 26 11 14 998.1 997.0 17.6
13/11:00pm 14.3 11.5 14.3 100 0.0 SSE 22 28 12 15 998.1 997.0 17.6
13/10:30pm 14.3 11.5 14.3 100 0.0 SSE 22 28 12 15 998.3 997.2 17.6
13/10:00pm 14.2 10.2 14.2 100 0.0 SSE 28 35 15 19 997.7 996.6 17.6
13/09:30pm 14.1 10.1 14.1 100 0.0 SSE 28 37 15 20 998.0 996.9 17.6
13/09:00pm 14.2 10.6 14.2 100 0.0 S 26 35 14 19 997.5 996.4 17.6
13/08:30pm 14.4 11.6 14.4 100 0.0 S 22 30 12 16 997.4 996.3 17.6
13/08:00pm 15.0 10.8 14.7 98 0.2 SSE 30 37 16 20 997.7 996.6 17.6
13/07:47pm 15.3 11.3 14.0 92 0.7 SSE 28 37 15 20 997.7 996.6 17.6
13/07:30pm 15.7 12.3 13.7 88 1.1 SSE 24 33 13 18 997.3 996.2 17.6
13/07:00pm 16.0 11.4 13.5 85 1.4 SSE 30 39 16 21 997.1 996.0 17.6
13/06:30pm 16.2 10.9 13.1 82 1.8 SSE 33 44 18 24 996.1 995.0 17.6
13/06:00pm 16.3 10.5 12.7 79 2.0 SSE 35 48 19 26 996.1 995.0 17.6
13/05:30pm 16.4 10.7 13.1 81 1.9 SSE 35 48 19 26 995.7 994.6 17.6
13/05:00pm 17.7 14.0 13.8 78 2.3 SE 26 37 14 20 996.1 995.0 17.6
13/04:30pm 17.6 13.2 14.1 80 2.0 SE 30 41 16 22 997.1 996.0 17.6
13/04:00pm 17.4 12.9 13.7 79 2.2 SE 30 35 16 19 997.8 996.7 17.6
13/03:30pm 17.8 13.9 14.5 81 1.9 SE 28 37 15 20 997.3 996.2 17.6
13/03:00pm 17.5 13.8 14.0 80 2.1 SSE 26 32 14 17 997.3 996.2 17.6
13/02:30pm 18.1 15.0 14.6 80 2.1 SSE 24 33 13 18 997.2 996.1 17.6
13/02:01pm 17.6 15.1 16.1 91 0.9 SSE 24 33 13 18 997.4 996.3 17.6
13/02:00pm 17.9 15.8 17.1 95 0.5 SSE 24 33 13 18 997.4 996.3 17.6
13/01:30pm 16.7 13.5 16.4 98 0.2 SSE 28 37 15 20 998.0 996.9 17.6
13/01:00pm 16.2 12.5 16.0 99 0.1 SSE 30 35 16 19 998.7 997.5 17.6
13/12:30pm 14.9 10.2 14.9 100 0.0 SSE 33 44 18 24 998.4 997.3 17.6
13/12:10pm 14.5 10.2 14.5 100 0.0 SE 30 39 16 21 999.0 997.8 17.6
13/12:00pm 13.8 10.4 13.8 100 0.0 SSE 24 33 13 18 999.3 998.2 17.6
13/11:42am 13.4 9.2 13.4 100 0.0 SSE 28 48 15 26 998.4 997.3 16.2
13/11:30am 13.5 11.4 13.5 100 0.0 SSE 17 22 9 12 1000.3 999.2 14.4
13/11:00am 13.6 11.1 13.6 100 0.0 SE 19 24 10 13 1000.5 999.4 10.4
13/10:30am 13.7 12.0 13.7 100 0.0 SE 15 20 8 11 1000.5 999.4 8.2
13/10:00am 14.0 13.6 14.0 100 0.0 S 9 13 5 7 1000.3 999.2 4.8
13/09:30am 14.2 11.7 14.2 100 0.0 SSE 20 26 11 14 999.5 998.4 2.4
13/09:00am 14.9 13.2 14.6 98 0.2 SSE 17 24 9 13 999.9 998.8 7.4
13/08:30am 14.8 14.2 14.5 98 0.2 S 11 15 6 8 999.6 998.5 7.4
13/08:00am 14.5 13.8 14.2 98 0.2 SSW 11 17 6 9 999.8 998.7 7.4
13/07:30am 14.5 12.6 14.3 99 0.1 S 17 24 9 13 999.5 998.4 7.4
13/07:00am 14.0 12.8 14.0 100 0.0 SSE 13 20 7 11 999.5 998.4 7.4
13/06:39am 14.0 13.2 14.0 100 0.0 S 11 15 6 8 1000.3 999.2 7.4
13/06:30am 14.0 13.6 14.0 100 0.0 SSW 9 15 5 8 1000.3 999.2 7.4
13/06:00am 14.0 12.4 14.0 100 0.0 SSW 15 22 8 12 1000.6 999.5 7.4

Other Formats:

Comma delimited format used in spreadsheet applications
http://www.bom.gov.au/fwo/IDV60801/IDV60801.94852.axf

JavaScript Object Notation format (JSON) in row-major order
http://www.bom.gov.au/fwo/IDV60801/IDV60801.94852.json